Practice 1 - Blue
Course: Road America · 2026-09-05 08:25AM
Weather Conditions
Temp 69°F
(64–74°F range)
Temp type NORMAL
Track DRY
Precip 0.0 mm (NONE)
Humidity 97%
Wind 13 km/h
Cloud 100%
OVERALL
BY CLASS
| POS | # | NAME | CLASS | BEST LAP | GAP | INTERVAL | LAPS |
|---|---|---|---|---|---|---|---|
| 1 | 158 | SCOTT GILL | GTD3 | 2:16.455 | - | - | 7 |
| 2 | 819 | ROBERT GEE | GTD3 | 2:17.515 | 1.060 | 1.060 | 8 |
| 3 | 194 | KEVIN CYR | GTD3 | 2:17.541 | 1.086 | 0.026 | 8 |
| 4 | 751 | CHRIS DOOLEY | GTD3 | 2:18.452 | 1.997 | 0.911 | 7 |
| 5 | 109 | RYAN SZYJAKOWSKI | GTD2 | 2:19.400 | 2.945 | 0.948 | 6 |
| 6 | 90 | NICOLE ROBICHAUD | GTD3 | 2:20.024 | 3.569 | 0.624 | 8 |
| 7 | 888 | JEFF BRETON | GTD3 | 2:20.215 | 3.760 | 0.191 | 8 |
| 8 | 111 | NICOLAS GIGUERE | GTD3 | 2:20.593 | 4.138 | 0.378 | 8 |
| 9 | 581 | MARK COOK | GTD3 | 2:20.731 | 4.276 | 0.138 | 8 |
| 10 | 747 | BRAD WEBER | GTD3 | 2:23.319 | 6.864 | 2.588 | 8 |
| 11 | 22 | JOHN EDDLEMON | GTD3 | 2:23.963 | 7.508 | 0.644 | 8 |
| 12 | 9 | ANGUS ROGERS | GTB1 | 2:24.536 | 8.081 | 0.573 | 8 |
| 13 | 171 | LARRY WEXLER | GTD3 | 2:24.753 | 8.298 | 0.217 | 8 |
| 14 | 60 | DAVID WELLS | GTD2 | 2:25.800 | 9.345 | 1.047 | 7 |
| 15 | 689 | ROBERT BAKER | GT3 | 2:26.294 | 9.839 | 0.494 | 8 |
| 16 | 696 | MIKE ORIGER | GTB1 | 2:26.431 | 9.976 | 0.137 | 7 |
| 17 | 14 | ARTHUR SOLTYS | GTD2 | 2:26.512 | 10.057 | 0.081 | 5 |
| 18 | 98 | ED DUNNE | GTB1 | 2:26.774 | 10.319 | 0.262 | 8 |
| 19 | 199 | BOB VAN ZANT | GT3 | 2:27.043 | 10.588 | 0.269 | 8 |
| 20 | 079 | CHARLES LEW | GT3 | 2:27.502 | 11.047 | 0.459 | 8 |
| 21 | 726 | RUSSEL MARTORANA | GTB1 | 2:27.789 | 11.334 | 0.287 | 5 |
| 22 | 62 | COLIN HAUER | GTD2 | 2:28.379 | 11.924 | 0.590 | 7 |
| 23 | 131 | WESTON JEZEK | SP997 | 2:28.888 | 12.433 | 0.509 | 7 |
| 24 | 951 | ANDREW BURKE | GTB1 | 2:30.006 | 13.551 | 1.118 | 5 |
| 25 | 221 | PIERRE PAQUET | GTD2 | 2:30.087 | 13.632 | 0.081 | 7 |
| 26 | 127 | STEVE GARRISON | GT3 | 2:30.451 | 13.996 | 0.364 | 7 |
| 27 | 147 | WALEED CHEHADI | SPC | 2:31.713 | 15.258 | 1.262 | 5 |
| 28 | 39 | TIM LAMBIE | SPC | 2:32.055 | 15.600 | 0.342 | 6 |
| 29 | 66 | CLAUDIO KAEMPF | GT4 | 2:32.126 | 15.671 | 0.071 | 4 |
| 30 | 517 | ALEX WILLIAMS | SP996 | 2:32.341 | 15.886 | 0.215 | 7 |
| 31 | 93 | MATT DISTEFANO | SPC | 2:32.345 | 15.890 | 0.004 | 4 |
| 32 | 498 | COLLIN SCHMITZ | GTB1 | 2:32.377 | 15.922 | 0.032 | 7 |
| 33 | 444 | TONY CLINTON | GTB1 | 2:33.629 | 17.174 | 1.252 | 7 |
| 34 | 122 | MICHAEL VENABLE | SPC | 2:35.353 | 18.898 | 1.724 | 6 |
| 35 | 556 | DOMINICK BELVEDERE | SPC | 2:35.623 | 19.168 | 0.270 | 7 |
| 36 | 97 | IAN ROGENSKI | SPC | 2:36.098 | 19.643 | 0.475 | 6 |
| 37 | 42 | PERRY LOWERY | SPC | 2:37.855 | 21.400 | 1.757 | 5 |
| 38 | 19 | JASON KNUPP | SPC | 2:37.893 | 21.438 | 0.038 | 6 |
| 39 | 4 | SAM MAMMANO | GTB1 | 2:37.997 | 21.542 | 0.104 | 7 |
| 40 | 447 | JON DUNSKI | GT3 | 2:42.423 | 25.968 | 4.426 | 2 |
| 41 | 497 | MICHAEL SCHMITZ | GTB1 | 2:44.049 | 27.594 | 1.626 | 6 |
| 42 | 5 | PATRICK PERONNET | GT4 | 2:44.085 | 27.630 | 0.036 | 7 |
Session Notes
2026-09-05 09:12AM:
Transponder
Car #719- No Transponder
Pole Position